createdAt,value
2023-04-08T00:00:50.578Z,101299.80
2023-04-08T00:05:55.779Z,101307.80
2023-04-08T00:10:58.466Z,101313.20
2023-04-08T00:16:01.338Z,101320.80
2023-04-08T00:21:05.084Z,101322.20
2023-04-08T00:26:07.650Z,101324.20
2023-04-08T00:31:10.578Z,101326.20
2023-04-08T00:36:13.207Z,101333.60
2023-04-08T00:41:15.830Z,101335.00
2023-04-08T00:46:18.763Z,101332.40
2023-04-08T00:51:21.778Z,101340.00
2023-04-08T00:56:24.782Z,101342.40
2023-04-08T01:01:39.144Z,101342.60
2023-04-08T01:07:11.249Z,101349.60
2023-04-08T01:12:27.265Z,101354.40
2023-04-08T01:17:32.120Z,101352.00
2023-04-08T01:22:46.586Z,101354.00
2023-04-08T01:27:50.634Z,101360.60
2023-04-08T01:32:55.733Z,101366.40
2023-04-08T01:38:00.413Z,101366.60
2023-04-08T01:43:06.646Z,101364.20
2023-04-08T01:48:10.234Z,101374.60
2023-04-08T01:53:13.332Z,101371.80
2023-04-08T01:58:21.825Z,101375.40
2023-04-08T02:03:27.685Z,101378.20
2023-04-08T02:08:30.645Z,101383.20
2023-04-08T02:13:33.810Z,101381.20
2023-04-08T02:18:43.637Z,101387.40
2023-04-08T02:23:51.291Z,101391.00
2023-04-08T02:28:56.341Z,101385.80
2023-04-08T02:33:59.952Z,101390.20
2023-04-08T02:39:03.996Z,101395.20
2023-04-08T02:44:06.579Z,101396.40
2023-04-08T02:49:09.140Z,101407.60
2023-04-08T02:54:11.747Z,101409.80
2023-04-08T02:59:14.341Z,101414.20
2023-04-08T03:04:16.947Z,101417.80
2023-04-08T03:09:19.530Z,101421.00
2023-04-08T03:14:22.313Z,101425.40
2023-04-08T03:19:24.919Z,101427.00
2023-04-08T03:24:27.508Z,101429.20
2023-04-08T03:29:30.394Z,101428.60
2023-04-08T03:34:35.650Z,101437.20
2023-04-08T03:39:38.665Z,101434.80
2023-04-08T03:44:41.607Z,101435.00
2023-04-08T03:49:44.329Z,101438.40
2023-04-08T03:54:47.221Z,101450.40
2023-04-08T03:59:50.205Z,101456.40
2023-04-08T04:04:53.466Z,101458.60
2023-04-08T04:09:57.172Z,101463.20
2023-04-08T04:14:59.722Z,101460.20
2023-04-08T04:20:06.948Z,101458.40
2023-04-08T04:25:10.381Z,101460.40
2023-04-08T04:30:15.629Z,101448.80
2023-04-08T04:35:18.475Z,101442.60
2023-04-08T04:40:21.395Z,101442.60
2023-04-08T04:45:23.974Z,101436.00
2023-04-08T04:50:26.637Z,101433.00
2023-04-08T04:55:29.304Z,101432.60
2023-04-08T05:00:31.865Z,101434.60
2023-04-08T05:05:34.489Z,101434.00
2023-04-08T05:10:37.094Z,101419.60
2023-04-08T05:15:39.692Z,101428.60
2023-04-08T05:20:42.238Z,101428.00
2023-04-08T05:25:44.835Z,101422.40
2023-04-08T05:30:52.225Z,101422.40
2023-04-08T05:35:54.875Z,101421.20
2023-04-08T05:40:57.545Z,101420.60
2023-04-08T05:46:00.501Z,101425.20
2023-04-08T05:51:03.607Z,101425.40
2023-04-08T05:56:06.432Z,101425.80
2023-04-08T06:01:09.045Z,101429.60
2023-04-08T06:06:13.164Z,101423.20
2023-04-08T06:11:15.793Z,101416.80
2023-04-08T06:16:20.944Z,101414.60
2023-04-08T06:21:24.019Z,101421.20
2023-04-08T06:26:27.761Z,101422.80
2023-04-08T06:31:30.381Z,101438.00
2023-04-08T06:36:32.957Z,101441.00
2023-04-08T06:41:35.692Z,101449.80
2023-04-08T06:46:38.324Z,101461.80
2023-04-08T06:51:40.885Z,101462.80
2023-04-08T06:56:43.625Z,101471.60
2023-04-08T07:01:46.788Z,101479.80
2023-04-08T07:06:50.075Z,101487.60
2023-04-08T07:11:52.695Z,101493.80
2023-04-08T07:16:56.296Z,101497.40
2023-04-08T07:21:59.013Z,101508.40
2023-04-08T07:27:01.679Z,101513.20
2023-04-08T07:32:04.585Z,101519.80
2023-04-08T07:37:07.164Z,101528.80
2023-04-08T07:42:09.746Z,101533.40
2023-04-08T07:47:12.669Z,101544.00
2023-04-08T07:52:15.823Z,101544.40
2023-04-08T07:57:18.428Z,101540.00
2023-04-08T08:02:21.141Z,101542.80
2023-04-08T08:07:23.865Z,101562.40
2023-04-08T08:12:26.433Z,101554.20
2023-04-08T08:17:31.015Z,101566.40
2023-04-08T08:22:33.719Z,101560.40
2023-04-08T08:27:36.476Z,101563.80
2023-04-08T08:32:39.167Z,101560.20
2023-04-08T08:37:41.904Z,101565.20
2023-04-08T08:42:52.620Z,101566.00
2023-04-08T08:47:57.600Z,101561.20
2023-04-08T08:53:00.291Z,101560.00
2023-04-08T08:58:03.164Z,101546.20
2023-04-08T09:03:29.109Z,101549.20
2023-04-08T09:08:37.461Z,101555.20
2023-04-08T09:13:40.405Z,101557.20
2023-04-08T09:18:45.926Z,101553.00
2023-04-08T09:23:52.558Z,101555.20
2023-04-08T09:29:14.769Z,101551.60
2023-04-08T09:34:29.688Z,101555.20
2023-04-08T09:39:32.446Z,101562.60
2023-04-08T09:44:37.416Z,101566.80
2023-04-08T09:50:00.376Z,101567.40
2023-04-08T09:55:08.443Z,101560.80
2023-04-08T10:00:14.914Z,101565.20
2023-04-08T10:05:18.856Z,101567.20
2023-04-08T10:10:22.468Z,101573.20
2023-04-08T10:15:40.909Z,101576.20
2023-04-08T10:20:45.790Z,101573.80
2023-04-08T10:25:49.371Z,101571.80
2023-04-08T10:30:53.940Z,101573.60
2023-04-08T10:36:10.407Z,101576.00
2023-04-08T10:41:14.418Z,101586.60
2023-04-08T10:46:17.420Z,101590.00
2023-04-08T10:51:20.212Z,101585.00
2023-04-08T10:56:25.476Z,101588.00
2023-04-08T11:01:29.556Z,101589.20
2023-04-08T11:06:33.143Z,101589.20
2023-04-08T11:11:36.482Z,101588.20
2023-04-08T11:16:40.728Z,101589.80
2023-04-08T11:21:43.450Z,101583.00
2023-04-08T11:26:46.501Z,101588.40
2023-04-08T11:31:49.699Z,101589.20
2023-04-08T11:36:52.423Z,101585.80
2023-04-08T11:41:55.388Z,101586.80
2023-04-08T11:46:58.761Z,101588.40
2023-04-08T11:52:01.374Z,101584.20
2023-04-08T11:57:04.231Z,101586.80
2023-04-08T12:02:07.752Z,101586.80
2023-04-08T12:07:10.932Z,101582.20
2023-04-08T12:12:13.534Z,101574.00
2023-04-08T12:17:16.318Z,101577.80
2023-04-08T12:22:19.100Z,101580.60
2023-04-08T12:27:21.696Z,101571.00
2023-04-08T12:32:25.555Z,101564.60
2023-04-08T12:37:28.638Z,101561.40
2023-04-08T12:42:31.647Z,101555.00
2023-04-08T12:47:34.422Z,101551.60
2023-04-08T12:52:37.176Z,101550.40
2023-04-08T12:57:39.819Z,101548.60
2023-04-08T13:02:42.680Z,101546.20
2023-04-08T13:07:46.177Z,101540.40
2023-04-08T13:12:48.807Z,101537.20
2023-04-08T13:17:51.433Z,101534.00
2023-04-08T13:22:54.140Z,101531.00
2023-04-08T13:27:56.995Z,101533.40
2023-04-08T13:32:59.636Z,101525.20
2023-04-08T13:38:02.336Z,101522.80
2023-04-08T13:43:05.267Z,101524.20
2023-04-08T13:48:08.084Z,101517.40
2023-04-08T13:53:10.776Z,101517.20
2023-04-08T13:58:21.419Z,101517.60
2023-04-08T14:03:28.161Z,101512.20
2023-04-08T14:08:30.879Z,101508.60
2023-04-08T14:13:33.904Z,101507.60
2023-04-08T14:18:36.608Z,101502.20
2023-04-08T14:23:39.210Z,101500.40
2023-04-08T14:28:41.869Z,101495.60
2023-04-08T14:33:44.441Z,101494.60
2023-04-08T14:38:47.027Z,101493.80
2023-04-08T14:43:49.601Z,101491.20
2023-04-08T14:48:52.329Z,101486.00
2023-04-08T14:53:55.289Z,101482.60
2023-04-08T14:58:57.875Z,101481.20
2023-04-08T15:04:00.851Z,101482.20
2023-04-08T15:09:03.707Z,101482.40
2023-04-08T15:14:06.858Z,101472.20
2023-04-08T15:19:09.776Z,101468.40
2023-04-08T15:24:12.992Z,101464.80
2023-04-08T15:29:15.593Z,101466.20
2023-04-08T15:34:18.604Z,101465.00
2023-04-08T15:39:21.146Z,101464.60
2023-04-08T15:44:24.201Z,101464.60
2023-04-08T15:49:26.871Z,101460.20
2023-04-08T15:54:31.170Z,101464.40
2023-04-08T15:59:33.901Z,101464.80
2023-04-08T16:04:36.456Z,101468.00
2023-04-08T16:09:39.181Z,101467.20
2023-04-08T16:14:41.861Z,101471.00
2023-04-08T16:19:44.627Z,101475.40
2023-04-08T16:24:47.215Z,101472.40
2023-04-08T16:29:49.895Z,101478.60
2023-04-08T16:34:52.576Z,101480.20
2023-04-08T16:39:55.906Z,101484.80
2023-04-08T16:44:59.754Z,101489.80
2023-04-08T16:50:02.774Z,101488.00
2023-04-08T16:55:06.621Z,101494.20
2023-04-08T17:00:11.837Z,101503.40
2023-04-08T17:05:14.587Z,101503.00
2023-04-08T17:10:17.268Z,101508.00
2023-04-08T17:15:20.458Z,101511.60
2023-04-08T17:20:24.859Z,101516.40
2023-04-08T17:25:27.534Z,101521.20
2023-04-08T17:30:30.203Z,101529.60
2023-04-08T17:35:32.821Z,101527.00
2023-04-08T17:40:36.426Z,101532.20
2023-04-08T17:45:39.578Z,101536.40
2023-04-08T17:50:42.250Z,101541.00
2023-04-08T17:55:45.369Z,101551.20
2023-04-08T18:00:49.086Z,101555.80
2023-04-08T18:05:51.930Z,101558.20
2023-04-08T18:10:54.818Z,101567.40
2023-04-08T18:15:58.260Z,101577.20
2023-04-08T18:21:01.265Z,101575.20
2023-04-08T18:26:04.323Z,101578.80
2023-04-08T18:31:07.678Z,101581.60
2023-04-08T18:36:12.614Z,101586.40
2023-04-08T18:41:16.358Z,101587.40
2023-04-08T18:46:20.023Z,101589.60
2023-04-08T18:51:23.533Z,101595.80
2023-04-08T18:56:26.687Z,101598.40
2023-04-08T19:01:31.631Z,101602.80
2023-04-08T19:06:35.956Z,101602.80
2023-04-08T19:11:38.979Z,101610.40
2023-04-08T19:16:42.053Z,101609.60
2023-04-08T19:21:45.329Z,101613.40
2023-04-08T19:26:49.586Z,101612.60
2023-04-08T19:31:52.912Z,101611.20
2023-04-08T19:36:56.144Z,101611.40
2023-04-08T19:41:59.014Z,101614.60
2023-04-08T19:47:02.686Z,101613.60
2023-04-08T19:52:05.968Z,101613.40
2023-04-08T19:57:10.899Z,101604.80
2023-04-08T20:02:13.694Z,101614.20
2023-04-08T20:07:16.762Z,101606.80
2023-04-08T20:12:19.543Z,101610.60
2023-04-08T20:17:22.437Z,101611.40
2023-04-08T20:22:25.685Z,101613.20
2023-04-08T20:27:28.257Z,101611.20
2023-04-08T20:32:30.945Z,101614.60
2023-04-08T20:37:33.753Z,101610.40
2023-04-08T20:42:36.538Z,101615.80
2023-04-08T20:47:39.256Z,101611.00
2023-04-08T20:52:42.168Z,101613.00
2023-04-08T20:57:44.806Z,101615.40
2023-04-08T21:02:47.995Z,101615.80
2023-04-08T21:07:50.948Z,101617.60
2023-04-08T21:12:53.517Z,101614.80
2023-04-08T21:17:56.266Z,101612.40
2023-04-08T21:22:59.756Z,101613.00
2023-04-08T21:28:02.344Z,101612.20
2023-04-08T21:33:05.287Z,101614.60
2023-04-08T21:38:07.949Z,101614.00
2023-04-08T21:43:10.567Z,101611.20
2023-04-08T21:48:13.250Z,101607.40
2023-04-08T21:53:16.644Z,101607.40
2023-04-08T21:58:19.319Z,101598.80
2023-04-08T22:03:22.273Z,101598.00
2023-04-08T22:08:25.080Z,101597.80
2023-04-08T22:13:27.818Z,101592.80
2023-04-08T22:18:30.551Z,101587.20
2023-04-08T22:23:33.142Z,101583.00
2023-04-08T22:28:35.670Z,101585.00
2023-04-08T22:33:39.802Z,101581.40
2023-04-08T22:38:42.452Z,101580.60
2023-04-08T22:43:45.056Z,101578.60
2023-04-08T22:48:49.326Z,101581.60
2023-04-08T22:53:52.391Z,101586.60
2023-04-08T22:58:55.083Z,101590.60
2023-04-08T23:03:57.715Z,101585.60
2023-04-08T23:09:00.273Z,101584.40
2023-04-08T23:14:02.879Z,101583.00
2023-04-08T23:19:05.775Z,101585.80
2023-04-08T23:24:08.489Z,101584.20
2023-04-08T23:29:11.015Z,101591.00
2023-04-08T23:34:13.581Z,101595.40
2023-04-08T23:39:16.212Z,101592.00
2023-04-08T23:44:18.811Z,101584.40
2023-04-08T23:49:21.465Z,101577.60
2023-04-08T23:54:24.170Z,101576.00
2023-04-08T23:59:28.955Z,101576.60
